Terminal Aerodrome Forecast
Issued by NWS

Home | Current Version | Previous Version | Text Only | Print | Product List | Glossary On
Versions: 1 2 3 4 5 6 7 8 9 10 11 12 13
000
FTUS44 KJAN 231720
TAFGTR
TAF
KGTR 231720Z 2318/2418 08005KT P6SM SCT040 SCT250
     FM231930 09005KT P6SM VCTS SCT050 BKN070CB
     FM240100 VRB03KT P6SM FEW060 SCT200
     FM241100 10003KT 5SM BR FEW250
     FM241330 12006KT P6SM FEW250=

USA.gov is the U.S. government's official web portal to all federal, state and local government web resources and services.